sensor_id;sensor_type;location;lat;lon;timestamp;temperature;humidity
44037;DHT22;62488;-37.670;-63.532;2022-11-20T00:01:12;23.50;99.90
44037;DHT22;62488;-37.670;-63.532;2022-11-20T00:03:39;23.50;99.90
44037;DHT22;62488;-37.670;-63.532;2022-11-20T00:06:09;23.50;99.90
44037;DHT22;62488;-37.670;-63.532;2022-11-20T00:08:35;23.50;99.90
44037;DHT22;62488;-37.670;-63.532;2022-11-20T00:11:18;23.40;99.90
44037;DHT22;62488;-37.670;-63.532;2022-11-20T00:13:46;23.60;99.90
44037;DHT22;62488;-37.670;-63.532;2022-11-20T00:16:16;23.90;99.20
44037;DHT22;62488;-37.670;-63.532;2022-11-20T00:18:43;24.20;98.20
44037;DHT22;62488;-37.670;-63.532;2022-11-20T00:21:19;24.30;98.30
44037;DHT22;62488;-37.670;-63.532;2022-11-20T00:23:46;24.20;99.10
44037;DHT22;62488;-37.670;-63.532;2022-11-20T00:26:15;24.30;99.50
44037;DHT22;62488;-37.670;-63.532;2022-11-20T00:28:43;24.30;99.60
44037;DHT22;62488;-37.670;-63.532;2022-11-20T00:31:15;24.30;99.90
44037;DHT22;62488;-37.670;-63.532;2022-11-20T00:33:43;24.20;99.90
44037;DHT22;62488;-37.670;-63.532;2022-11-20T00:36:13;24.10;99.90
44037;DHT22;62488;-37.670;-63.532;2022-11-20T00:38:40;24.00;99.90
44037;DHT22;62488;-37.670;-63.532;2022-11-20T00:41:09;23.90;99.90
44037;DHT22;62488;-37.670;-63.532;2022-11-20T00:43:37;23.90;99.90
44037;DHT22;62488;-37.670;-63.532;2022-11-20T00:46:10;24.00;99.90
44037;DHT22;62488;-37.670;-63.532;2022-11-20T00:48:39;23.90;99.90
44037;DHT22;62488;-37.670;-63.532;2022-11-20T00:51:06;23.90;99.90
44037;DHT22;62488;-37.670;-63.532;2022-11-20T00:53:33;24.00;99.90
44037;DHT22;62488;-37.670;-63.532;2022-11-20T00:56:02;24.20;99.90
44037;DHT22;62488;-37.670;-63.532;2022-11-20T00:58:35;24.40;99.90
44037;DHT22;62488;-37.670;-63.532;2022-11-20T01:01:17;24.40;99.90
44037;DHT22;62488;-37.670;-63.532;2022-11-20T01:03:48;24.10;99.90
44037;DHT22;62488;-37.670;-63.532;2022-11-20T01:06:21;23.80;99.90
44037;DHT22;62488;-37.670;-63.532;2022-11-20T01:08:50;23.70;99.90
44037;DHT22;62488;-37.670;-63.532;2022-11-20T01:11:23;23.60;99.90
44037;DHT22;62488;-37.670;-63.532;2022-11-20T01:13:51;23.60;99.90
44037;DHT22;62488;-37.670;-63.532;2022-11-20T01:16:23;23.50;99.90
44037;DHT22;62488;-37.670;-63.532;2022-11-20T01:18:52;23.50;99.90
44037;DHT22;62488;-37.670;-63.532;2022-11-20T01:21:22;23.50;99.90
44037;DHT22;62488;-37.670;-63.532;2022-11-20T01:23:51;23.50;99.90
44037;DHT22;62488;-37.670;-63.532;2022-11-20T01:26:24;23.60;99.90
44037;DHT22;62488;-37.670;-63.532;2022-11-20T01:28:53;23.70;99.90
44037;DHT22;62488;-37.670;-63.532;2022-11-20T01:31:27;23.60;99.90
44037;DHT22;62488;-37.670;-63.532;2022-11-20T01:33:56;23.40;99.90
44037;DHT22;62488;-37.670;-63.532;2022-11-20T01:36:25;23.20;99.90
44037;DHT22;62488;-37.670;-63.532;2022-11-20T01:38:54;23.10;99.90
44037;DHT22;62488;-37.670;-63.532;2022-11-20T01:41:23;23.00;99.90
44037;DHT22;62488;-37.670;-63.532;2022-11-20T01:44:11;22.80;99.90
44037;DHT22;62488;-37.670;-63.532;2022-11-20T01:47:02;22.70;99.90
44037;DHT22;62488;-37.670;-63.532;2022-11-20T01:49:37;22.40;99.90
44037;DHT22;62488;-37.670;-63.532;2022-11-20T01:52:17;21.90;99.90
44037;DHT22;62488;-37.670;-63.532;2022-11-20T01:55:01;21.40;99.90
44037;DHT22;62488;-37.670;-63.532;2022-11-20T01:57:33;21.20;99.90
44037;DHT22;62488;-37.670;-63.532;2022-11-20T02:00:10;21.00;99.90
44037;DHT22;62488;-37.670;-63.532;2022-11-20T02:02:44;20.90;99.90
44037;DHT22;62488;-37.670;-63.532;2022-11-20T02:07:58;20.20;99.90
44037;DHT22;62488;-37.670;-63.532;2022-11-20T02:10:26;19.70;99.90
44037;DHT22;62488;-37.670;-63.532;2022-11-20T02:12:54;19.20;99.90
44037;DHT22;62488;-37.670;-63.532;2022-11-20T02:15:39;18.80;99.90
44037;DHT22;62488;-37.670;-63.532;2022-11-20T02:18:07;18.40;99.90
44037;DHT22;62488;-37.670;-63.532;2022-11-20T02:20:35;18.20;99.90
44037;DHT22;62488;-37.670;-63.532;2022-11-20T02:23:11;17.90;99.90
44037;DHT22;62488;-37.670;-63.532;2022-11-20T02:25:39;17.60;99.90
44037;DHT22;62488;-37.670;-63.532;2022-11-20T02:28:07;17.40;99.90
44037;DHT22;62488;-37.670;-63.532;2022-11-20T02:30:35;17.10;99.90
44037;DHT22;62488;-37.670;-63.532;2022-11-20T02:33:02;17.00;99.90
44037;DHT22;62488;-37.670;-63.532;2022-11-20T02:37:58;16.70;99.90
44037;DHT22;62488;-37.670;-63.532;2022-11-20T02:40:26;16.60;99.90
44037;DHT22;62488;-37.670;-63.532;2022-11-20T02:42:54;16.60;99.90
44037;DHT22;62488;-37.670;-63.532;2022-11-20T02:45:21;16.60;99.90
44037;DHT22;62488;-37.670;-63.532;2022-11-20T02:47:52;16.60;99.90
44037;DHT22;62488;-37.670;-63.532;2022-11-20T02:50:19;16.50;99.90
44037;DHT22;62488;-37.670;-63.532;2022-11-20T02:52:46;16.60;99.90
44037;DHT22;62488;-37.670;-63.532;2022-11-20T02:55:13;16.50;99.90
44037;DHT22;62488;-37.670;-63.532;2022-11-20T02:57:40;16.40;99.90
44037;DHT22;62488;-37.670;-63.532;2022-11-20T03:00:08;16.40;99.90
44037;DHT22;62488;-37.670;-63.532;2022-11-20T03:02:36;16.40;99.90
44037;DHT22;62488;-37.670;-63.532;2022-11-20T03:05:03;16.40;99.90
44037;DHT22;62488;-37.670;-63.532;2022-11-20T03:07:30;16.40;99.90
44037;DHT22;62488;-37.670;-63.532;2022-11-20T03:09:57;16.50;99.90
44037;DHT22;62488;-37.670;-63.532;2022-11-20T03:12:24;16.60;99.90
44037;DHT22;62488;-37.670;-63.532;2022-11-20T03:14:51;16.70;99.90
44037;DHT22;62488;-37.670;-63.532;2022-11-20T03:17:18;16.70;99.90
44037;DHT22;62488;-37.670;-63.532;2022-11-20T03:19:45;16.70;99.90
44037;DHT22;62488;-37.670;-63.532;2022-11-20T03:22:12;16.70;99.90
44037;DHT22;62488;-37.670;-63.532;2022-11-20T03:24:38;16.60;99.90
44037;DHT22;62488;-37.670;-63.532;2022-11-20T03:27:05;16.40;99.90
44037;DHT22;62488;-37.670;-63.532;2022-11-20T03:29:32;16.30;99.90
44037;DHT22;62488;-37.670;-63.532;2022-11-20T03:32:01;16.30;99.90
44037;DHT22;62488;-37.670;-63.532;2022-11-20T03:34:28;16.20;99.90
44037;DHT22;62488;-37.670;-63.532;2022-11-20T03:36:55;16.30;99.90
44037;DHT22;62488;-37.670;-63.532;2022-11-20T03:39:22;16.20;99.90
44037;DHT22;62488;-37.670;-63.532;2022-11-20T03:41:49;16.10;99.90
44037;DHT22;62488;-37.670;-63.532;2022-11-20T03:44:16;16.20;99.90
44037;DHT22;62488;-37.670;-63.532;2022-11-20T03:46:43;16.20;99.90
44037;DHT22;62488;-37.670;-63.532;2022-11-20T03:49:10;16.10;99.90
44037;DHT22;62488;-37.670;-63.532;2022-11-20T03:51:37;16.10;99.90
44037;DHT22;62488;-37.670;-63.532;2022-11-20T03:54:09;16.00;99.90
44037;DHT22;62488;-37.670;-63.532;2022-11-20T03:56:37;15.90;99.90
44037;DHT22;62488;-37.670;-63.532;2022-11-20T03:59:06;15.90;99.90
44037;DHT22;62488;-37.670;-63.532;2022-11-20T04:01:35;15.80;99.90
44037;DHT22;62488;-37.670;-63.532;2022-11-20T04:04:04;15.80;99.90
44037;DHT22;62488;-37.670;-63.532;2022-11-20T04:06:35;15.80;99.90
44037;DHT22;62488;-37.670;-63.532;2022-11-20T04:09:03;15.60;99.90
44037;DHT22;62488;-37.670;-63.532;2022-11-20T04:11:33;15.90;99.90
44037;DHT22;62488;-37.670;-63.532;2022-11-20T04:14:04;15.60;99.90
44037;DHT22;62488;-37.670;-63.532;2022-11-20T04:16:33;15.80;99.90
44037;DHT22;62488;-37.670;-63.532;2022-11-20T04:19:03;15.80;99.90
44037;DHT22;62488;-37.670;-63.532;2022-11-20T04:21:30;15.50;99.90
44037;DHT22;62488;-37.670;-63.532;2022-11-20T04:23:57;15.40;99.90
44037;DHT22;62488;-37.670;-63.532;2022-11-20T04:26:27;15.30;99.90
44037;DHT22;62488;-37.670;-63.532;2022-11-20T04:28:54;15.40;99.90
44037;DHT22;62488;-37.670;-63.532;2022-11-20T04:31:23;15.40;99.90
44037;DHT22;62488;-37.670;-63.532;2022-11-20T04:33:51;15.40;99.90
44037;DHT22;62488;-37.670;-63.532;2022-11-20T04:36:23;15.40;99.90
44037;DHT22;62488;-37.670;-63.532;2022-11-20T04:38:52;15.40;99.90
44037;DHT22;62488;-37.670;-63.532;2022-11-20T04:41:21;15.40;99.90
44037;DHT22;62488;-37.670;-63.532;2022-11-20T04:43:54;15.30;99.90
44037;DHT22;62488;-37.670;-63.532;2022-11-20T04:46:26;15.30;99.90
44037;DHT22;62488;-37.670;-63.532;2022-11-20T04:48:54;15.40;99.90
44037;DHT22;62488;-37.670;-63.532;2022-11-20T04:51:21;15.30;99.90
44037;DHT22;62488;-37.670;-63.532;2022-11-20T04:53:48;15.30;99.90
44037;DHT22;62488;-37.670;-63.532;2022-11-20T04:56:15;15.40;99.90
44037;DHT22;62488;-37.670;-63.532;2022-11-20T04:58:42;15.40;99.90
44037;DHT22;62488;-37.670;-63.532;2022-11-20T05:01:20;15.40;99.90
44037;DHT22;62488;-37.670;-63.532;2022-11-20T05:03:47;15.50;99.90
44037;DHT22;62488;-37.670;-63.532;2022-11-20T05:06:17;15.50;99.90
44037;DHT22;62488;-37.670;-63.532;2022-11-20T05:08:46;15.50;99.90
44037;DHT22;62488;-37.670;-63.532;2022-11-20T05:11:19;15.50;99.90
44037;DHT22;62488;-37.670;-63.532;2022-11-20T05:13:47;15.50;99.90
44037;DHT22;62488;-37.670;-63.532;2022-11-20T05:16:20;15.60;99.90
44037;DHT22;62488;-37.670;-63.532;2022-11-20T05:18:48;15.70;99.90
44037;DHT22;62488;-37.670;-63.532;2022-11-20T05:21:17;15.70;99.90
44037;DHT22;62488;-37.670;-63.532;2022-11-20T05:23:45;15.70;99.90
44037;DHT22;62488;-37.670;-63.532;2022-11-20T05:26:17;15.70;99.90
44037;DHT22;62488;-37.670;-63.532;2022-11-20T05:28:45;15.70;99.90
44037;DHT22;62488;-37.670;-63.532;2022-11-20T05:31:16;15.70;99.90
44037;DHT22;62488;-37.670;-63.532;2022-11-20T05:33:44;15.70;99.90
44037;DHT22;62488;-37.670;-63.532;2022-11-20T05:36:13;15.70;99.90
44037;DHT22;62488;-37.670;-63.532;2022-11-20T05:38:41;15.70;99.90
44037;DHT22;62488;-37.670;-63.532;2022-11-20T05:41:13;15.70;99.90
44037;DHT22;62488;-37.670;-63.532;2022-11-20T05:43:41;15.70;99.90
44037;DHT22;62488;-37.670;-63.532;2022-11-20T05:46:11;15.80;99.90
44037;DHT22;62488;-37.670;-63.532;2022-11-20T05:48:40;15.80;99.90
44037;DHT22;62488;-37.670;-63.532;2022-11-20T05:51:09;15.70;99.90
44037;DHT22;62488;-37.670;-63.532;2022-11-20T05:53:37;15.80;99.90
44037;DHT22;62488;-37.670;-63.532;2022-11-20T05:56:16;15.70;99.90
44037;DHT22;62488;-37.670;-63.532;2022-11-20T05:58:44;15.70;99.90
44037;DHT22;62488;-37.670;-63.532;2022-11-20T06:01:23;15.70;99.90
44037;DHT22;62488;-37.670;-63.532;2022-11-20T06:03:51;15.70;99.90
44037;DHT22;62488;-37.670;-63.532;2022-11-20T06:06:19;15.70;99.90
44037;DHT22;62488;-37.670;-63.532;2022-11-20T06:08:46;15.70;99.90
44037;DHT22;62488;-37.670;-63.532;2022-11-20T06:11:14;15.60;99.90
44037;DHT22;62488;-37.670;-63.532;2022-11-20T06:13:42;15.60;99.90
44037;DHT22;62488;-37.670;-63.532;2022-11-20T06:16:10;15.60;99.90
44037;DHT22;62488;-37.670;-63.532;2022-11-20T06:18:38;15.50;99.90
44037;DHT22;62488;-37.670;-63.532;2022-11-20T06:21:07;15.70;99.90
44037;DHT22;62488;-37.670;-63.532;2022-11-20T06:23:34;15.60;99.90
44037;DHT22;62488;-37.670;-63.532;2022-11-20T06:26:09;15.70;99.90
44037;DHT22;62488;-37.670;-63.532;2022-11-20T06:28:37;15.70;99.90
44037;DHT22;62488;-37.670;-63.532;2022-11-20T06:31:05;15.80;99.90
44037;DHT22;62488;-37.670;-63.532;2022-11-20T06:33:33;15.80;99.90
44037;DHT22;62488;-37.670;-63.532;2022-11-20T06:36:00;15.80;99.90
44037;DHT22;62488;-37.670;-63.532;2022-11-20T06:38:28;15.70;99.90
44037;DHT22;62488;-37.670;-63.532;2022-11-20T06:40:55;15.70;99.90
44037;DHT22;62488;-37.670;-63.532;2022-11-20T06:43:23;15.60;99.90
44037;DHT22;62488;-37.670;-63.532;2022-11-20T06:45:54;15.60;99.90
44037;DHT22;62488;-37.670;-63.532;2022-11-20T06:48:23;15.60;99.90
44037;DHT22;62488;-37.670;-63.532;2022-11-20T06:50:50;15.50;99.90
44037;DHT22;62488;-37.670;-63.532;2022-11-20T06:53:17;15.50;99.90
44037;DHT22;62488;-37.670;-63.532;2022-11-20T06:55:47;15.50;99.90
44037;DHT22;62488;-37.670;-63.532;2022-11-20T06:58:15;15.50;99.90
44037;DHT22;62488;-37.670;-63.532;2022-11-20T07:00:42;15.50;99.90
44037;DHT22;62488;-37.670;-63.532;2022-11-20T07:03:11;15.40;99.90
44037;DHT22;62488;-37.670;-63.532;2022-11-20T07:05:38;15.30;99.90
44037;DHT22;62488;-37.670;-63.532;2022-11-20T07:08:06;15.40;99.90
44037;DHT22;62488;-37.670;-63.532;2022-11-20T07:10:33;15.30;99.90
44037;DHT22;62488;-37.670;-63.532;2022-11-20T07:13:00;15.40;99.90
44037;DHT22;62488;-37.670;-63.532;2022-11-20T07:15:27;15.30;99.90
44037;DHT22;62488;-37.670;-63.532;2022-11-20T07:17:54;15.40;99.90
44037;DHT22;62488;-37.670;-63.532;2022-11-20T07:20:21;15.40;99.90
44037;DHT22;62488;-37.670;-63.532;2022-11-20T07:22:54;15.40;99.90
44037;DHT22;62488;-37.670;-63.532;2022-11-20T07:25:23;15.30;99.90
44037;DHT22;62488;-37.670;-63.532;2022-11-20T07:27:50;15.30;99.90
44037;DHT22;62488;-37.670;-63.532;2022-11-20T07:30:18;15.40;99.90
44037;DHT22;62488;-37.670;-63.532;2022-11-20T07:32:51;15.40;99.90
44037;DHT22;62488;-37.670;-63.532;2022-11-20T07:35:19;15.40;99.90
44037;DHT22;62488;-37.670;-63.532;2022-11-20T07:37:46;15.30;99.90
44037;DHT22;62488;-37.670;-63.532;2022-11-20T07:40:14;15.30;99.90
44037;DHT22;62488;-37.670;-63.532;2022-11-20T07:42:59;15.20;99.90
44037;DHT22;62488;-37.670;-63.532;2022-11-20T07:45:26;15.20;99.90
44037;DHT22;62488;-37.670;-63.532;2022-11-20T07:47:53;15.20;99.90
44037;DHT22;62488;-37.670;-63.532;2022-11-20T07:50:20;15.10;99.90
44037;DHT22;62488;-37.670;-63.532;2022-11-20T07:52:47;15.10;99.90
44037;DHT22;62488;-37.670;-63.532;2022-11-20T07:55:15;15.10;99.90
44037;DHT22;62488;-37.670;-63.532;2022-11-20T07:57:42;15.10;99.90
44037;DHT22;62488;-37.670;-63.532;2022-11-20T08:00:10;15.10;99.90
44037;DHT22;62488;-37.670;-63.532;2022-11-20T08:02:41;15.10;99.90
44037;DHT22;62488;-37.670;-63.532;2022-11-20T08:05:09;15.00;99.90
44037;DHT22;62488;-37.670;-63.532;2022-11-20T08:07:41;15.00;99.90
44037;DHT22;62488;-37.670;-63.532;2022-11-20T08:10:10;15.00;99.90
44037;DHT22;62488;-37.670;-63.532;2022-11-20T08:12:45;15.00;99.90
44037;DHT22;62488;-37.670;-63.532;2022-11-20T08:15:30;15.00;99.90
44037;DHT22;62488;-37.670;-63.532;2022-11-20T08:20:31;15.00;99.90
44037;DHT22;62488;-37.670;-63.532;2022-11-20T08:23:03;15.00;99.90
44037;DHT22;62488;-37.670;-63.532;2022-11-20T08:25:32;15.00;99.90
44037;DHT22;62488;-37.670;-63.532;2022-11-20T08:28:01;14.90;99.90
44037;DHT22;62488;-37.670;-63.532;2022-11-20T08:30:29;14.90;99.90
44037;DHT22;62488;-37.670;-63.532;2022-11-20T08:33:07;14.80;99.90
44037;DHT22;62488;-37.670;-63.532;2022-11-20T08:35:38;14.80;99.90
44037;DHT22;62488;-37.670;-63.532;2022-11-20T08:38:08;14.80;99.90
44037;DHT22;62488;-37.670;-63.532;2022-11-20T08:40:35;14.80;99.90
44037;DHT22;62488;-37.670;-63.532;2022-11-20T08:43:02;14.80;99.90
44037;DHT22;62488;-37.670;-63.532;2022-11-20T08:45:29;14.80;99.90
44037;DHT22;62488;-37.670;-63.532;2022-11-20T08:48:00;14.90;99.90
44037;DHT22;62488;-37.670;-63.532;2022-11-20T08:50:28;14.90;99.90
44037;DHT22;62488;-37.670;-63.532;2022-11-20T08:53:05;15.00;99.90
44037;DHT22;62488;-37.670;-63.532;2022-11-20T08:55:32;15.00;99.90
44037;DHT22;62488;-37.670;-63.532;2022-11-20T08:58:05;15.10;99.90
44037;DHT22;62488;-37.670;-63.532;2022-11-20T09:00:32;15.10;99.90
44037;DHT22;62488;-37.670;-63.532;2022-11-20T09:03:00;15.10;99.90
44037;DHT22;62488;-37.670;-63.532;2022-11-20T09:05:27;15.10;99.90
44037;DHT22;62488;-37.670;-63.532;2022-11-20T09:07:58;15.10;99.90
44037;DHT22;62488;-37.670;-63.532;2022-11-20T09:10:26;15.10;99.90
44037;DHT22;62488;-37.670;-63.532;2022-11-20T09:12:54;15.10;99.90
44037;DHT22;62488;-37.670;-63.532;2022-11-20T09:15:24;15.10;99.90
44037;DHT22;62488;-37.670;-63.532;2022-11-20T09:17:59;15.20;99.90
44037;DHT22;62488;-37.670;-63.532;2022-11-20T09:20:27;15.20;99.90
44037;DHT22;62488;-37.670;-63.532;2022-11-20T09:22:58;15.20;99.90
44037;DHT22;62488;-37.670;-63.532;2022-11-20T09:25:25;15.20;99.90
44037;DHT22;62488;-37.670;-63.532;2022-11-20T09:27:59;15.30;99.90
44037;DHT22;62488;-37.670;-63.532;2022-11-20T09:30:26;15.30;99.90
44037;DHT22;62488;-37.670;-63.532;2022-11-20T09:32:53;15.30;99.90
44037;DHT22;62488;-37.670;-63.532;2022-11-20T09:35:21;15.30;99.90
44037;DHT22;62488;-37.670;-63.532;2022-11-20T09:37:48;15.40;99.90
44037;DHT22;62488;-37.670;-63.532;2022-11-20T09:40:21;15.40;99.90
44037;DHT22;62488;-37.670;-63.532;2022-11-20T09:43:10;15.10;99.90
44037;DHT22;62488;-37.670;-63.532;2022-11-20T09:46:21;14.90;99.90
44037;DHT22;62488;-37.670;-63.532;2022-11-20T09:56:29;14.70;99.90
44037;DHT22;62488;-37.670;-63.532;2022-11-20T09:59:02;14.70;99.90
44037;DHT22;62488;-37.670;-63.532;2022-11-20T10:01:34;14.80;99.90
44037;DHT22;62488;-37.670;-63.532;2022-11-20T10:04:17;15.00;99.90
44037;DHT22;62488;-37.670;-63.532;2022-11-20T10:09:40;15.20;99.90
44037;DHT22;62488;-37.670;-63.532;2022-11-20T10:14:52;15.30;99.90
44037;DHT22;62488;-37.670;-63.532;2022-11-20T10:23:59;15.40;99.90
44037;DHT22;62488;-37.670;-63.532;2022-11-20T10:29:25;15.30;99.90
44037;DHT22;62488;-37.670;-63.532;2022-11-20T10:32:10;15.10;99.90
44037;DHT22;62488;-37.670;-63.532;2022-11-20T10:34:49;15.00;99.90
44037;DHT22;62488;-37.670;-63.532;2022-11-20T10:37:23;14.90;99.90
44037;DHT22;62488;-37.670;-63.532;2022-11-20T10:43:10;14.80;99.90
44037;DHT22;62488;-37.670;-63.532;2022-11-20T10:46:21;14.80;99.90
44037;DHT22;62488;-37.670;-63.532;2022-11-20T10:48:49;14.80;99.90
44037;DHT22;62488;-37.670;-63.532;2022-11-20T10:51:37;14.70;99.90
44037;DHT22;62488;-37.670;-63.532;2022-11-20T10:54:45;14.60;99.90
44037;DHT22;62488;-37.670;-63.532;2022-11-20T11:00:10;14.70;99.90
44037;DHT22;62488;-37.670;-63.532;2022-11-20T11:02:51;14.70;99.90
44037;DHT22;62488;-37.670;-63.532;2022-11-20T11:07:59;15.10;99.90
44037;DHT22;62488;-37.670;-63.532;2022-11-20T11:13:29;15.50;99.90
44037;DHT22;62488;-37.670;-63.532;2022-11-20T11:15:58;15.40;99.90
44037;DHT22;62488;-37.670;-63.532;2022-11-20T11:18:28;15.60;99.90
44037;DHT22;62488;-37.670;-63.532;2022-11-20T11:20:57;15.70;99.90
44037;DHT22;62488;-37.670;-63.532;2022-11-20T11:23:39;16.00;99.90
44037;DHT22;62488;-37.670;-63.532;2022-11-20T11:26:20;16.20;99.90
44037;DHT22;62488;-37.670;-63.532;2022-11-20T11:28:55;16.20;99.90
44037;DHT22;62488;-37.670;-63.532;2022-11-20T11:31:24;16.30;99.90
44037;DHT22;62488;-37.670;-63.532;2022-11-20T11:33:51;16.40;99.90
44037;DHT22;62488;-37.670;-63.532;2022-11-20T11:36:22;16.60;99.90
44037;DHT22;62488;-37.670;-63.532;2022-11-20T11:38:53;16.60;99.90
44037;DHT22;62488;-37.670;-63.532;2022-11-20T11:41:24;16.70;99.90
44037;DHT22;62488;-37.670;-63.532;2022-11-20T11:44:19;16.70;99.90
44037;DHT22;62488;-37.670;-63.532;2022-11-20T11:47:09;17.00;99.90
44037;DHT22;62488;-37.670;-63.532;2022-11-20T11:49:38;17.10;99.90
44037;DHT22;62488;-37.670;-63.532;2022-11-20T11:52:18;17.20;99.90
44037;DHT22;62488;-37.670;-63.532;2022-11-20T12:00:10;17.20;99.90
44037;DHT22;62488;-37.670;-63.532;2022-11-20T12:02:51;17.50;99.90
44037;DHT22;62488;-37.670;-63.532;2022-11-20T12:05:26;17.70;99.90
44037;DHT22;62488;-37.670;-63.532;2022-11-20T12:16:14;18.00;99.90
44037;DHT22;62488;-37.670;-63.532;2022-11-20T12:18:46;18.10;99.90
44037;DHT22;62488;-37.670;-63.532;2022-11-20T12:32:48;18.60;98.00
44037;DHT22;62488;-37.670;-63.532;2022-11-20T13:01:45;19.70;93.80
44037;DHT22;62488;-37.670;-63.532;2022-11-20T13:05:05;19.80;93.50
44037;DHT22;62488;-37.670;-63.532;2022-11-20T13:07:35;20.10;93.10
44037;DHT22;62488;-37.670;-63.532;2022-11-20T13:10:03;20.20;92.40
44037;DHT22;62488;-37.670;-63.532;2022-11-20T13:15:06;20.20;91.10
44037;DHT22;62488;-37.670;-63.532;2022-11-20T13:17:54;20.20;91.00
44037;DHT22;62488;-37.670;-63.532;2022-11-20T13:20:25;20.20;89.70
44037;DHT22;62488;-37.670;-63.532;2022-11-20T13:22:54;20.40;90.70
44037;DHT22;62488;-37.670;-63.532;2022-11-20T13:27:55;20.70;87.40
44037;DHT22;62488;-37.670;-63.532;2022-11-20T13:30:25;20.90;87.40
44037;DHT22;62488;-37.670;-63.532;2022-11-20T13:32:59;20.90;81.80
44037;DHT22;62488;-37.670;-63.532;2022-11-20T13:35:37;20.80;85.90
44037;DHT22;62488;-37.670;-63.532;2022-11-20T13:38:09;20.90;84.10
44037;DHT22;62488;-37.670;-63.532;2022-11-20T13:40:49;20.90;82.00
44037;DHT22;62488;-37.670;-63.532;2022-11-20T13:46:03;21.10;82.80
44037;DHT22;62488;-37.670;-63.532;2022-11-20T13:48:45;21.40;84.00
44037;DHT22;62488;-37.670;-63.532;2022-11-20T13:51:51;21.80;88.30
44037;DHT22;62488;-37.670;-63.532;2022-11-20T13:54:34;21.70;79.80
44037;DHT22;62488;-37.670;-63.532;2022-11-20T14:00:18;21.70;78.60
44037;DHT22;62488;-37.670;-63.532;2022-11-20T14:05:28;21.90;78.00
44037;DHT22;62488;-37.670;-63.532;2022-11-20T14:07:58;21.80;79.40
44037;DHT22;62488;-37.670;-63.532;2022-11-20T14:10:27;21.60;76.60
44037;DHT22;62488;-37.670;-63.532;2022-11-20T14:12:55;21.40;76.70
44037;DHT22;62488;-37.670;-63.532;2022-11-20T14:15:33;21.50;77.10
44037;DHT22;62488;-37.670;-63.532;2022-11-20T14:18:12;22.00;78.40
44037;DHT22;62488;-37.670;-63.532;2022-11-20T14:20:40;22.00;76.10
44037;DHT22;62488;-37.670;-63.532;2022-11-20T14:23:10;22.00;78.80
44037;DHT22;62488;-37.670;-63.532;2022-11-20T14:25:41;22.20;77.60
44037;DHT22;62488;-37.670;-63.532;2022-11-20T14:28:18;22.20;73.80
44037;DHT22;62488;-37.670;-63.532;2022-11-20T14:30:48;21.90;76.70
44037;DHT22;62488;-37.670;-63.532;2022-11-20T14:33:16;22.20;77.70
44037;DHT22;62488;-37.670;-63.532;2022-11-20T14:35:49;22.40;77.90
44037;DHT22;62488;-37.670;-63.532;2022-11-20T14:38:20;22.40;75.00
44037;DHT22;62488;-37.670;-63.532;2022-11-20T14:40:48;22.50;77.10
44037;DHT22;62488;-37.670;-63.532;2022-11-20T14:43:25;22.70;77.00
44037;DHT22;62488;-37.670;-63.532;2022-11-20T14:45:58;23.10;77.90
44037;DHT22;62488;-37.670;-63.532;2022-11-20T14:51:05;22.50;72.70
44037;DHT22;62488;-37.670;-63.532;2022-11-20T14:53:32;22.60;72.80
44037;DHT22;62488;-37.670;-63.532;2022-11-20T14:56:01;22.40;70.70
44037;DHT22;62488;-37.670;-63.532;2022-11-20T14:58:30;22.50;74.40
44037;DHT22;62488;-37.670;-63.532;2022-11-20T15:01:03;22.70;73.70
44037;DHT22;62488;-37.670;-63.532;2022-11-20T15:03:33;23.00;72.10
44037;DHT22;62488;-37.670;-63.532;2022-11-20T15:06:00;22.70;72.70
44037;DHT22;62488;-37.670;-63.532;2022-11-20T15:08:28;22.90;71.90
44037;DHT22;62488;-37.670;-63.532;2022-11-20T15:10:55;23.00;73.50
44037;DHT22;62488;-37.670;-63.532;2022-11-20T15:13:37;23.10;71.40
44037;DHT22;62488;-37.670;-63.532;2022-11-20T15:16:27;22.90;71.60
44037;DHT22;62488;-37.670;-63.532;2022-11-20T15:18:54;23.10;70.90
44037;DHT22;62488;-37.670;-63.532;2022-11-20T15:21:22;23.30;77.30
44037;DHT22;62488;-37.670;-63.532;2022-11-20T15:23:49;23.40;72.70
44037;DHT22;62488;-37.670;-63.532;2022-11-20T15:26:26;23.40;71.80
44037;DHT22;62488;-37.670;-63.532;2022-11-20T15:28:54;23.00;68.80
44037;DHT22;62488;-37.670;-63.532;2022-11-20T15:31:22;22.80;69.20
44037;DHT22;62488;-37.670;-63.532;2022-11-20T15:33:50;22.60;70.50
44037;DHT22;62488;-37.670;-63.532;2022-11-20T15:36:17;22.80;71.90
44037;DHT22;62488;-37.670;-63.532;2022-11-20T15:38:44;23.00;69.00
44037;DHT22;62488;-37.670;-63.532;2022-11-20T15:41:11;23.10;72.30
44037;DHT22;62488;-37.670;-63.532;2022-11-20T15:43:42;23.50;74.30
44037;DHT22;62488;-37.670;-63.532;2022-11-20T15:46:15;23.60;70.00
44037;DHT22;62488;-37.670;-63.532;2022-11-20T15:48:47;23.60;72.90
44037;DHT22;62488;-37.670;-63.532;2022-11-20T15:51:37;23.80;71.50
44037;DHT22;62488;-37.670;-63.532;2022-11-20T15:54:16;23.30;67.20
44037;DHT22;62488;-37.670;-63.532;2022-11-20T15:56:48;23.20;71.20
44037;DHT22;62488;-37.670;-63.532;2022-11-20T15:59:15;23.30;70.60
44037;DHT22;62488;-37.670;-63.532;2022-11-20T16:01:42;23.10;70.20
44037;DHT22;62488;-37.670;-63.532;2022-11-20T16:04:14;23.60;72.60
44037;DHT22;62488;-37.670;-63.532;2022-11-20T16:06:43;23.40;68.10
44037;DHT22;62488;-37.670;-63.532;2022-11-20T16:09:10;23.40;71.30
44037;DHT22;62488;-37.670;-63.532;2022-11-20T16:11:37;23.60;69.20
44037;DHT22;62488;-37.670;-63.532;2022-11-20T16:14:04;23.70;70.80
44037;DHT22;62488;-37.670;-63.532;2022-11-20T16:16:50;23.70;68.50
44037;DHT22;62488;-37.670;-63.532;2022-11-20T16:19:17;23.70;72.10
44037;DHT22;62488;-37.670;-63.532;2022-11-20T16:21:45;23.60;67.90
44037;DHT22;62488;-37.670;-63.532;2022-11-20T16:24:14;23.20;69.40
44037;DHT22;62488;-37.670;-63.532;2022-11-20T16:26:42;23.60;72.00
44037;DHT22;62488;-37.670;-63.532;2022-11-20T16:29:09;24.30;71.40
44037;DHT22;62488;-37.670;-63.532;2022-11-20T16:31:36;23.60;66.60
44037;DHT22;62488;-37.670;-63.532;2022-11-20T16:34:05;23.30;68.80
44037;DHT22;62488;-37.670;-63.532;2022-11-20T16:36:33;23.30;68.50
44037;DHT22;62488;-37.670;-63.532;2022-11-20T16:39:02;23.50;72.60
44037;DHT22;62488;-37.670;-63.532;2022-11-20T16:41:31;23.30;69.80
44037;DHT22;62488;-37.670;-63.532;2022-11-20T16:44:01;23.70;67.80
44037;DHT22;62488;-37.670;-63.532;2022-11-20T16:46:32;23.90;67.60
44037;DHT22;62488;-37.670;-63.532;2022-11-20T16:49:00;24.00;66.30
44037;DHT22;62488;-37.670;-63.532;2022-11-20T16:51:29;24.20;67.40
44037;DHT22;62488;-37.670;-63.532;2022-11-20T16:53:57;24.20;67.00
44037;DHT22;62488;-37.670;-63.532;2022-11-20T16:56:25;24.10;70.30
44037;DHT22;62488;-37.670;-63.532;2022-11-20T16:58:54;24.00;67.90
44037;DHT22;62488;-37.670;-63.532;2022-11-20T17:01:23;24.10;68.80